createdAt,value
2019-01-19T00:01:32.979Z,96902.34
2019-01-19T00:05:26.804Z,96907.66
2019-01-19T00:08:28.683Z,96909.53
2019-01-19T00:12:11.813Z,96906.58
2019-01-19T00:15:34.992Z,96907.88
2019-01-19T00:19:21.797Z,96906.83
2019-01-19T00:23:06.091Z,96906.80
2019-01-19T00:26:20.489Z,96903.33
2019-01-19T00:29:15.481Z,96909.77
2019-01-19T00:32:04.533Z,96906.66
2019-01-19T00:35:49.496Z,96911.61
2019-01-19T00:39:01.791Z,96913.70
2019-01-19T00:43:00.189Z,96917.63
2019-01-19T00:46:20.403Z,96917.08
2019-01-19T00:49:24.490Z,96922.23
2019-01-19T00:52:40.369Z,96925.03
2019-01-19T00:56:06.540Z,96932.13
2019-01-19T00:58:58.435Z,96923.84
2019-01-19T01:02:25.736Z,96921.63
2019-01-19T01:05:32.974Z,96922.63
2019-01-19T01:09:01.814Z,96920.91
2019-01-19T01:12:17.562Z,96927.14
2019-01-19T01:15:55.150Z,96927.34
2019-01-19T01:19:36.004Z,96932.69
2019-01-19T01:23:21.547Z,96935.14
2019-01-19T01:26:48.367Z,96937.89
2019-01-19T01:30:26.267Z,96941.11
2019-01-19T01:34:05.330Z,96942.39
2019-01-19T01:37:33.944Z,96943.75
2019-01-19T01:40:41.497Z,96947.27
2019-01-19T01:44:18.509Z,96947.91
2019-01-19T01:47:52.118Z,96950.48
2019-01-19T01:51:15.050Z,96945.83
2019-01-19T01:54:44.489Z,96944.08
2019-01-19T01:58:05.716Z,96946.95
2019-01-19T03:03:10.371Z,96923.27
2019-01-19T03:05:56.897Z,96921.20
2019-01-19T03:09:16.848Z,96920.08
2019-01-19T03:12:53.305Z,96917.02
2019-01-19T03:16:25.544Z,96905.36
2019-01-19T03:19:40.365Z,96906.64
2019-01-19T03:23:17.843Z,96906.77
2019-01-19T03:26:25.176Z,96907.23
2019-01-19T03:29:37.015Z,96904.81
2019-01-19T03:32:51.235Z,96905.91
2019-01-19T03:36:19.300Z,96903.02
2019-01-19T03:39:48.141Z,96901.58
2019-01-19T03:43:09.157Z,96897.59
2019-01-19T03:46:41.738Z,96899.67
2019-01-19T03:50:02.605Z,96891.55
2019-01-19T03:53:39.468Z,96893.95
2019-01-19T03:56:54.192Z,96893.28
2019-01-19T04:00:22.244Z,96896.77
2019-01-19T04:03:56.866Z,96896.11
2019-01-19T04:07:03.078Z,96892.42
2019-01-19T04:10:13.379Z,96891.77
2019-01-19T04:13:52.282Z,96889.48
2019-01-19T04:17:23.640Z,96885.79
2019-01-19T04:20:25.193Z,96889.20
2019-01-19T04:23:02.005Z,96883.73
2019-01-19T04:26:14.790Z,96880.38
2019-01-19T04:28:46.457Z,96879.91
2019-01-19T04:31:17.080Z,96879.41
2019-01-19T04:33:48.425Z,96879.75
2019-01-19T04:36:21.672Z,96869.53
2019-01-19T04:38:53.029Z,96871.62
2019-01-19T04:41:23.697Z,96875.47
2019-01-19T04:43:54.379Z,96874.83
2019-01-19T04:46:25.346Z,96871.18
2019-01-19T04:48:55.985Z,96869.94
2019-01-19T04:51:26.646Z,96875.55
2019-01-19T04:53:57.294Z,96866.31
2019-01-19T04:56:28.695Z,96874.13
2019-01-19T04:58:59.756Z,96874.12
2019-01-19T05:01:30.697Z,96871.70
2019-01-19T05:04:02.252Z,96870.44
2019-01-19T05:06:32.575Z,96874.25
2019-01-19T05:09:05.734Z,96869.63
2019-01-19T05:11:37.066Z,96871.39
2019-01-19T05:14:42.485Z,96871.75
2019-01-19T05:17:13.911Z,96871.30
2019-01-19T05:19:44.954Z,96867.05
2019-01-19T05:22:15.249Z,96863.59
2019-01-19T05:24:46.585Z,96869.50
2019-01-19T05:27:18.165Z,96870.00
2019-01-19T05:29:49.460Z,96868.23
2019-01-19T05:32:20.870Z,96855.48
2019-01-19T05:34:52.044Z,96862.66
2019-01-19T05:37:23.366Z,96858.69
2019-01-19T05:39:54.796Z,96862.03
2019-01-19T05:42:26.156Z,96866.84
2019-01-19T05:44:56.795Z,96868.45
2019-01-19T05:47:27.469Z,96865.42
2019-01-19T05:49:58.461Z,96871.00
2019-01-19T05:52:29.496Z,96867.79
2019-01-19T05:55:00.234Z,96867.95
2019-01-19T05:57:31.277Z,96869.08
2019-01-19T06:00:03.017Z,96865.57
2019-01-19T06:02:34.418Z,96870.18
2019-01-19T06:05:05.735Z,96865.37
2019-01-19T06:07:36.984Z,96862.16
2019-01-19T06:10:10.366Z,96868.48
2019-01-19T06:12:40.958Z,96871.86
2019-01-19T06:15:14.053Z,96867.55
2019-01-19T06:17:45.551Z,96874.91
2019-01-19T06:20:17.666Z,96862.61
2019-01-19T06:22:48.869Z,96865.97
2019-01-19T06:25:19.889Z,96867.07
2019-01-19T06:27:50.180Z,96868.95
2019-01-19T06:30:23.512Z,96868.76
2019-01-19T06:32:54.919Z,96867.42
2019-01-19T06:35:25.513Z,96870.25
2019-01-19T06:37:56.297Z,96869.39
2019-01-19T06:40:27.293Z,96871.28
2019-01-19T06:42:58.299Z,96874.28
2019-01-19T06:45:30.473Z,96870.41
2019-01-19T06:48:01.861Z,96882.55
2019-01-19T06:50:32.575Z,96879.37
2019-01-19T06:53:03.586Z,96878.42
2019-01-19T06:55:36.651Z,96870.40
2019-01-19T06:58:08.031Z,96880.12
2019-01-19T07:00:39.705Z,96874.67
2019-01-19T07:03:10.738Z,96869.52
2019-01-19T07:05:42.058Z,96870.94
2019-01-19T07:08:13.405Z,96870.47
2019-01-19T07:10:45.093Z,96868.08
2019-01-19T07:13:16.524Z,96869.16
2019-01-19T07:15:47.561Z,96872.67
2019-01-19T07:18:18.609Z,96876.29
2019-01-19T07:20:50.278Z,96871.33
2019-01-19T07:23:20.968Z,96875.08
2019-01-19T07:25:52.485Z,96881.14
2019-01-19T07:28:23.611Z,96880.80
2019-01-19T07:30:54.320Z,96880.86
2019-01-19T07:33:25.694Z,96876.83
2019-01-19T07:36:08.990Z,96870.68
2019-01-19T07:38:40.049Z,96869.31
2019-01-19T07:41:10.681Z,96872.48
2019-01-19T07:43:42.030Z,96874.55
2019-01-19T07:46:13.812Z,96875.91
2019-01-19T07:48:44.823Z,96879.50
2019-01-19T07:51:25.776Z,96874.69
2019-01-19T07:53:57.141Z,96873.00
2019-01-19T07:56:27.780Z,96871.44
2019-01-19T07:58:58.833Z,96877.45
2019-01-19T08:01:30.581Z,96876.20
2019-01-19T08:04:01.633Z,96877.99
2019-01-19T08:06:32.661Z,96877.80
2019-01-19T08:09:03.882Z,96874.77
2019-01-19T08:11:34.459Z,96873.44
2019-01-19T08:14:05.534Z,96877.15
2019-01-19T08:16:55.779Z,96877.76
2019-01-19T08:19:26.807Z,96886.66
2019-01-19T08:21:57.849Z,96888.08
2019-01-19T08:24:28.976Z,96889.52
2019-01-19T08:27:00.429Z,96899.92
2019-01-19T08:29:47.862Z,96891.65
2019-01-19T08:32:18.926Z,96887.86
2019-01-19T08:34:50.053Z,96887.58
2019-01-19T08:37:24.503Z,96887.46
2019-01-19T08:39:59.595Z,96892.69
2019-01-19T08:43:21.468Z,96887.36
2019-01-19T08:45:52.994Z,96878.98
2019-01-19T08:48:24.604Z,96877.80
2019-01-19T08:50:57.134Z,96886.02
2019-01-19T08:53:28.180Z,96882.00
2019-01-19T08:55:59.160Z,96883.13
2019-01-19T08:58:30.856Z,96885.39
2019-01-19T09:01:02.285Z,96887.39
2019-01-19T09:03:43.073Z,96886.02
2019-01-19T09:06:13.867Z,96889.66
2019-01-19T09:08:46.792Z,96889.15
2019-01-19T09:47:05.566Z,96899.91
2019-01-19T09:49:36.232Z,96903.69
2019-01-19T09:52:06.886Z,96900.38
2019-01-19T09:54:37.517Z,96898.84
2019-01-19T09:57:08.844Z,96897.03
2019-01-19T09:59:39.173Z,96895.82
2019-01-19T10:02:42.594Z,96902.45
2019-01-19T10:05:17.683Z,96896.95
2019-01-19T10:07:48.999Z,96895.03
2019-01-19T10:10:20.105Z,96892.67
2019-01-19T10:12:51.258Z,96888.73
2019-01-19T10:15:21.918Z,96893.48
2019-01-19T10:17:53.249Z,96890.44
2019-01-19T10:20:25.704Z,96889.78
2019-01-19T10:22:56.334Z,96885.17
2019-01-19T10:25:27.691Z,96887.15
2019-01-19T10:27:58.784Z,96885.08
2019-01-19T10:30:29.222Z,96889.70
2019-01-19T10:33:00.790Z,96885.97
2019-01-19T10:35:32.139Z,96881.17
2019-01-19T10:38:03.309Z,96880.12
2019-01-19T10:40:33.954Z,96875.17
2019-01-19T10:43:04.660Z,96873.84
2019-01-19T10:45:35.346Z,96870.03
2019-01-19T10:48:06.938Z,96867.84
2019-01-19T10:50:37.568Z,96862.50
2019-01-19T10:53:08.638Z,96863.41
2019-01-19T10:55:40.139Z,96863.52
2019-01-19T10:58:11.127Z,96859.73
2019-01-19T11:00:42.159Z,96853.58
2019-01-19T11:03:13.878Z,96855.41
2019-01-19T11:05:45.127Z,96845.87
2019-01-19T11:08:16.815Z,96845.67
2019-01-19T11:10:47.111Z,96848.09
2019-01-19T11:13:18.422Z,96845.11
2019-01-19T11:15:50.069Z,96837.84
2019-01-19T11:18:21.804Z,96839.05
2019-01-19T11:20:52.853Z,96834.73
2019-01-19T11:23:23.541Z,96834.11
2019-01-19T11:25:54.324Z,96830.73
2019-01-19T11:28:24.639Z,96830.11
2019-01-19T11:31:04.673Z,96818.92
2019-01-19T11:33:35.727Z,96819.70
2019-01-19T11:36:06.887Z,96823.10
2019-01-19T11:38:38.229Z,96807.58
2019-01-19T11:41:09.516Z,96803.73
2019-01-19T11:43:40.504Z,96799.81
2019-01-19T11:46:10.811Z,96792.83
2019-01-19T11:48:47.009Z,96796.84
2019-01-19T11:51:18.042Z,96791.32
2019-01-19T11:54:08.426Z,96786.73
2019-01-19T11:56:39.757Z,96786.84
2019-01-19T11:59:11.859Z,96781.62
2019-01-19T12:01:51.838Z,96781.16
2019-01-19T12:04:22.707Z,96780.52
2019-01-19T12:06:53.592Z,96776.13
2019-01-19T12:09:24.706Z,96779.06
2019-01-19T12:12:01.284Z,96779.39
2019-01-19T12:14:42.974Z,96771.69
2019-01-19T12:17:13.731Z,96768.81
2019-01-19T12:19:44.425Z,96763.43
2019-01-19T12:22:16.051Z,96757.30
2019-01-19T12:24:50.444Z,96757.64
2019-01-19T12:27:40.393Z,96753.87
2019-01-19T12:30:16.294Z,96754.02
2019-01-19T12:32:47.403Z,96755.72
2019-01-19T12:35:18.640Z,96751.14
2019-01-19T12:37:49.616Z,96754.27
2019-01-19T12:40:22.720Z,96750.12
2019-01-19T12:42:57.081Z,96743.85
2019-01-19T12:45:35.430Z,96740.10
2019-01-19T12:48:06.849Z,96740.03
2019-01-19T12:50:38.314Z,96740.64
2019-01-19T12:53:10.166Z,96737.13
2019-01-19T12:55:42.732Z,96735.11
2019-01-19T12:58:13.412Z,96733.98
2019-01-19T13:00:45.472Z,96724.99
2019-01-19T13:03:17.374Z,96721.91
2019-01-19T13:06:32.021Z,96726.34
2019-01-19T13:09:12.622Z,96710.84
2019-01-19T13:12:40.161Z,96708.67
2019-01-19T13:16:35.596Z,96706.82
2019-01-19T13:19:45.549Z,96698.20
2019-01-19T13:23:12.337Z,96700.67
2019-01-19T13:26:51.341Z,96692.56
2019-01-19T13:30:07.696Z,96685.92
2019-01-19T13:33:31.452Z,96679.47
2019-01-19T13:36:39.815Z,96670.46
2019-01-19T13:40:16.148Z,96681.70
2019-01-19T13:44:13.603Z,96679.30
2019-01-19T13:47:26.949Z,96683.39
2019-01-19T13:51:22.719Z,96680.79
2019-01-19T13:54:49.626Z,96680.67
2019-01-19T13:58:14.389Z,96674.23
2019-01-19T14:01:44.645Z,96668.92
2019-01-19T14:05:05.529Z,96667.11
2019-01-19T14:08:22.655Z,96658.00
2019-01-19T14:11:57.318Z,96662.09
2019-01-19T14:15:22.072Z,96655.86
2019-01-19T14:19:18.830Z,96658.22
2019-01-19T14:22:41.328Z,96662.77
2019-01-19T14:25:53.728Z,96657.89
2019-01-19T14:29:11.218Z,96654.40
2019-01-19T14:32:41.536Z,96653.90
2019-01-19T14:35:56.477Z,96648.57
2019-01-19T14:39:23.618Z,96653.28
2019-01-19T14:42:25.894Z,96645.56
2019-01-19T14:45:28.481Z,96650.20
2019-01-19T14:48:47.723Z,96651.98
2019-01-19T14:52:27.614Z,96647.25
2019-01-19T14:55:44.352Z,96645.22
2019-01-19T14:59:12.785Z,96648.20
2019-01-19T15:02:49.617Z,96641.98
2019-01-19T15:05:38.119Z,96635.34
2019-01-19T15:09:03.772Z,96636.11
2019-01-19T15:12:50.201Z,96632.32
2019-01-19T15:15:54.083Z,96635.27
2019-01-19T15:19:35.731Z,96627.09
2019-01-19T15:23:02.423Z,96633.33
2019-01-19T15:26:25.251Z,96635.03
2019-01-19T15:29:36.829Z,96624.67
2019-01-19T15:33:04.147Z,96624.95
2019-01-19T15:36:35.934Z,96628.05
2019-01-19T15:40:03.423Z,96627.55
2019-01-19T15:43:31.559Z,96628.02
2019-01-19T15:47:12.798Z,96627.14
2019-01-19T15:50:37.493Z,96632.56
2019-01-19T15:53:36.443Z,96627.45
2019-01-19T15:56:50.302Z,96630.94
2019-01-19T16:00:27.712Z,96626.81
2019-01-19T16:04:06.442Z,96630.33
2019-01-19T16:07:35.119Z,96625.81
2019-01-19T16:11:12.023Z,96628.08
2019-01-19T16:14:50.907Z,96633.90
2019-01-19T16:18:39.043Z,96633.50
2019-01-19T16:21:43.618Z,96628.44
2019-01-19T16:25:10.013Z,96631.48
2019-01-19T16:28:49.505Z,96634.69
2019-01-19T16:32:15.360Z,96635.05
2019-01-19T16:35:40.680Z,96639.53
2019-01-19T16:39:11.106Z,96639.97
2019-01-19T16:42:40.925Z,96635.25
2019-01-19T16:46:18.792Z,96636.33
2019-01-19T16:49:20.322Z,96631.32
2019-01-19T16:52:42.115Z,96636.47
2019-01-19T16:55:50.589Z,96630.72
2019-01-19T16:59:37.802Z,96630.95
2019-01-19T17:03:27.440Z,96631.75
2019-01-19T17:07:07.191Z,96629.36
2019-01-19T17:09:52.223Z,96626.95
2019-01-19T17:13:08.631Z,96629.24
2019-01-19T17:16:22.050Z,96627.67
2019-01-19T17:19:46.491Z,96630.09
2019-01-19T17:23:04.816Z,96625.49
2019-01-19T17:26:11.699Z,96624.60
2019-01-19T17:29:54.516Z,96628.92
2019-01-19T17:33:05.732Z,96628.26
2019-01-19T17:36:18.720Z,96627.95
2019-01-19T17:39:41.076Z,96631.61
2019-01-19T17:42:56.411Z,96628.55
2019-01-19T17:46:29.473Z,96632.14
2019-01-19T17:49:57.141Z,96626.55
2019-01-19T17:53:05.639Z,96634.13
2019-01-19T17:56:41.039Z,96632.83
2019-01-19T18:00:23.134Z,96636.61
2019-01-19T18:03:19.546Z,96630.98
2019-01-19T18:06:37.252Z,96627.80
2019-01-19T18:10:13.343Z,96631.14
2019-01-19T18:13:30.193Z,96625.37
2019-01-19T18:17:08.088Z,96631.84
2019-01-19T18:21:11.550Z,96634.02
2019-01-19T18:24:50.926Z,96631.65
2019-01-19T18:28:11.487Z,96625.58
2019-01-19T18:31:48.242Z,96626.61
2019-01-19T18:34:59.893Z,96624.45
2019-01-19T18:38:38.281Z,96627.60
2019-01-19T18:42:03.057Z,96632.45
2019-01-19T18:45:15.134Z,96629.78
2019-01-19T18:48:10.207Z,96632.75
2019-01-19T18:51:34.091Z,96627.56
2019-01-19T18:55:22.319Z,96624.73
2019-01-19T18:58:42.871Z,96627.25
2019-01-19T19:02:07.155Z,96620.17
2019-01-19T19:05:38.308Z,96617.13
2019-01-19T19:08:54.489Z,96620.50
2019-01-19T19:12:26.332Z,96620.11
2019-01-19T19:15:38.060Z,96619.88
2019-01-19T19:19:05.216Z,96619.42
2019-01-19T19:22:23.616Z,96624.87
2019-01-19T19:25:50.580Z,96615.30
2019-01-19T19:29:14.785Z,96610.61
2019-01-19T19:32:23.770Z,96614.43
2019-01-19T19:36:06.628Z,96609.97
2019-01-19T19:39:39.856Z,96606.14
2019-01-19T19:42:52.430Z,96612.53
2019-01-19T19:46:29.562Z,96607.94
2019-01-19T19:50:17.993Z,96608.14
2019-01-19T19:52:49.347Z,96618.92
2019-01-19T19:55:17.320Z,96612.91
2019-01-19T19:57:50.171Z,96614.11
2019-01-19T20:00:21.016Z,96618.14
2019-01-19T20:02:52.635Z,96623.48
2019-01-19T20:05:24.753Z,96622.09
2019-01-19T20:07:56.230Z,96620.58
2019-01-19T20:10:26.893Z,96622.84
2019-01-19T20:12:58.098Z,96624.27
2019-01-19T20:15:29.300Z,96623.22
2019-01-19T20:18:00.997Z,96622.50
2019-01-19T20:20:32.520Z,96630.27
2019-01-19T20:23:03.933Z,96624.10
2019-01-19T20:25:36.031Z,96621.27
2019-01-19T20:28:07.325Z,96620.98
2019-01-19T20:30:38.332Z,96625.25
2019-01-19T20:33:10.998Z,96619.09
2019-01-19T20:35:41.930Z,96620.42
2019-01-19T20:38:12.658Z,96620.39
2019-01-19T20:40:43.728Z,96623.67
2019-01-19T20:43:14.787Z,96617.37
2019-01-19T20:45:47.820Z,96618.38
2019-01-19T20:48:19.912Z,96618.67
2019-01-19T20:50:50.553Z,96618.02
2019-01-19T20:53:22.174Z,96619.14
2019-01-19T20:55:54.158Z,96622.44
2019-01-19T20:58:24.828Z,96623.87
2019-01-19T21:00:55.141Z,96621.83
2019-01-19T21:03:26.877Z,96616.28
2019-01-19T21:05:57.541Z,96619.58
2019-01-19T21:08:28.266Z,96619.11
2019-01-19T21:11:00.226Z,96621.47
2019-01-19T21:13:30.866Z,96616.52
2019-01-19T21:16:01.497Z,96610.04
2019-01-19T21:18:32.571Z,96618.52
2019-01-19T21:21:03.958Z,96617.13
2019-01-19T21:23:41.687Z,96612.21
2019-01-19T21:26:12.925Z,96618.42
2019-01-19T21:28:45.643Z,96614.30
2019-01-19T21:31:16.534Z,96612.39
2019-01-19T21:33:48.568Z,96607.64
2019-01-19T21:36:19.537Z,96608.00
2019-01-19T21:38:50.466Z,96607.73
2019-01-19T21:41:23.987Z,96604.18
2019-01-19T21:43:54.606Z,96608.17
2019-01-19T21:46:25.659Z,96607.73
2019-01-19T21:48:57.684Z,96610.98
2019-01-19T21:51:29.035Z,96611.82
2019-01-19T21:54:00.431Z,96610.98
2019-01-19T21:56:32.254Z,96615.00
2019-01-19T21:59:03.942Z,96614.53
2019-01-19T22:01:35.281Z,96616.45
2019-01-19T22:04:07.234Z,96614.86
2019-01-19T22:06:38.375Z,96617.63
2019-01-19T22:09:09.858Z,96612.02
2019-01-19T22:11:41.179Z,96610.73
2019-01-19T22:14:12.281Z,96614.78
2019-01-19T22:16:44.012Z,96617.52
2019-01-19T22:19:15.974Z,96614.47
2019-01-19T22:21:47.396Z,96614.00
2019-01-19T22:24:18.851Z,96618.41
2019-01-19T22:26:52.565Z,96615.88
2019-01-19T22:29:23.913Z,96616.65
2019-01-19T22:31:54.623Z,96614.12
2019-01-19T22:34:27.486Z,96619.56
2019-01-19T22:36:58.462Z,96616.85
2019-01-19T22:39:29.499Z,96615.58
2019-01-19T22:42:00.257Z,96617.50
2019-01-19T22:44:30.676Z,96611.30
2019-01-19T22:47:03.153Z,96613.08
2019-01-19T22:49:33.878Z,96609.73
2019-01-19T22:52:04.910Z,96618.17
2019-01-19T22:54:37.232Z,96616.14
2019-01-19T22:57:08.896Z,96616.44
2019-01-19T22:59:39.666Z,96613.36
2019-01-19T23:02:14.065Z,96615.47
2019-01-19T23:04:45.232Z,96612.03
2019-01-19T23:07:16.960Z,96618.25
2019-01-19T23:09:48.932Z,96609.34
2019-01-19T23:12:20.637Z,96609.64
2019-01-19T23:14:52.028Z,96610.90
2019-01-19T23:17:23.614Z,96607.54
2019-01-19T23:19:56.650Z,96607.69
2019-01-19T23:22:27.962Z,96605.42
2019-01-19T23:24:59.871Z,96606.05
2019-01-19T23:27:32.612Z,96606.48
2019-01-19T23:30:03.580Z,96601.87
2019-01-19T23:32:35.448Z,96607.29
2019-01-19T23:35:07.225Z,96603.14
2019-01-19T23:37:38.754Z,96605.41
2019-01-19T23:40:09.926Z,96602.67
2019-01-19T23:42:47.144Z,96606.02
2019-01-19T23:45:13.065Z,96601.55
2019-01-19T23:47:44.078Z,96599.30
2019-01-19T23:50:15.377Z,96601.34
2019-01-19T23:52:46.371Z,96596.45
2019-01-19T23:55:17.772Z,96601.37
2019-01-19T23:57:49.223Z,96594.24
